createdAt,value
2022-08-02T00:00:30.898Z,0.00
2022-08-02T00:01:30.927Z,0.00
2022-08-02T00:02:30.906Z,0.00
2022-08-02T00:03:30.958Z,0.00
2022-08-02T00:04:30.907Z,0.00
2022-08-02T00:05:30.907Z,0.00
2022-08-02T00:06:30.915Z,0.00
2022-08-02T00:07:30.912Z,0.00
2022-08-02T00:08:30.913Z,0.00
2022-08-02T00:09:30.917Z,0.00
2022-08-02T00:10:30.922Z,0.00
2022-08-02T00:11:30.922Z,0.00
2022-08-02T00:12:30.923Z,0.00
2022-08-02T00:13:30.931Z,0.00
2022-08-02T00:14:30.930Z,0.00
2022-08-02T00:15:30.931Z,0.00
2022-08-02T00:16:37.594Z,0.00
2022-08-02T00:17:30.933Z,0.00
2022-08-02T00:18:30.940Z,0.00
2022-08-02T00:19:31.136Z,0.00
2022-08-02T00:20:30.942Z,0.00
2022-08-02T00:21:30.947Z,0.00
2022-08-02T00:22:30.944Z,0.00
2022-08-02T00:23:30.948Z,0.00
2022-08-02T00:24:31.248Z,0.00
2022-08-02T00:25:30.951Z,0.00
2022-08-02T00:26:30.955Z,0.00
2022-08-02T00:27:30.951Z,0.00
2022-08-02T00:28:30.960Z,0.00
2022-08-02T00:29:30.964Z,0.00
2022-08-02T00:30:30.957Z,0.00
2022-08-02T00:32:30.967Z,0.00
2022-08-02T00:34:27.087Z,0.00
2022-08-02T00:34:33.910Z,0.00
2022-08-02T00:35:30.974Z,0.00
2022-08-02T00:36:30.977Z,0.00
2022-08-02T00:37:30.974Z,0.00
2022-08-02T00:38:30.975Z,0.00
2022-08-02T00:39:33.464Z,0.00
2022-08-02T00:40:30.985Z,0.00
2022-08-02T00:41:30.985Z,0.00
2022-08-02T00:42:30.987Z,0.00
2022-08-02T00:43:30.989Z,0.00
2022-08-02T00:44:30.986Z,0.00
2022-08-02T00:46:03.191Z,0.00
2022-08-02T00:46:30.996Z,0.00
2022-08-02T00:47:30.995Z,0.00
2022-08-02T00:48:32.408Z,0.00
2022-08-02T00:49:31.065Z,0.00
2022-08-02T00:50:31.002Z,0.00
2022-08-02T00:51:31.006Z,0.00
2022-08-02T00:52:31.007Z,0.00
2022-08-02T00:53:31.009Z,0.00
2022-08-02T00:54:31.009Z,0.00
2022-08-02T00:55:31.487Z,0.00
2022-08-02T00:56:31.014Z,0.00
2022-08-02T00:57:31.017Z,0.00
2022-08-02T00:58:31.018Z,0.00
2022-08-02T00:59:31.021Z,0.00
2022-08-02T01:00:31.021Z,0.00
2022-08-02T01:01:31.085Z,0.00
2022-08-02T01:02:31.232Z,0.00
2022-08-02T01:03:31.028Z,0.00
2022-08-02T01:05:42.762Z,0.00
2022-08-02T01:07:31.037Z,0.00
2022-08-02T01:08:31.803Z,0.00
2022-08-02T01:09:31.042Z,0.00
2022-08-02T01:10:31.048Z,0.00
2022-08-02T01:11:31.045Z,0.00
2022-08-02T01:12:31.046Z,0.00
2022-08-02T01:13:31.051Z,0.00
2022-08-02T01:14:31.053Z,0.00
2022-08-02T01:15:36.085Z,0.00
2022-08-02T01:17:31.266Z,0.00
2022-08-02T01:18:31.059Z,0.00
2022-08-02T01:19:31.262Z,0.00
2022-08-02T01:20:31.064Z,0.00
2022-08-02T01:21:31.270Z,0.00
2022-08-02T01:22:59.539Z,0.00
2022-08-02T01:23:31.070Z,0.00
2022-08-02T01:24:31.075Z,0.00
2022-08-02T01:25:31.075Z,0.00
2022-08-02T01:26:31.079Z,0.00
2022-08-02T01:27:31.081Z,0.00
2022-08-02T01:28:31.080Z,0.00
2022-08-02T01:29:31.084Z,0.00
2022-08-02T01:30:31.082Z,0.00
2022-08-02T01:31:31.087Z,0.00
2022-08-02T01:32:31.089Z,0.00
2022-08-02T01:34:31.093Z,0.00
2022-08-02T01:35:47.422Z,0.00
2022-08-02T01:36:31.100Z,0.00
2022-08-02T01:37:31.098Z,0.00
2022-08-02T01:38:31.101Z,0.00
2022-08-02T01:39:32.519Z,0.00
2022-08-02T01:41:31.112Z,0.00
2022-08-02T01:42:31.115Z,0.00
2022-08-02T01:43:31.125Z,0.00
2022-08-02T01:44:31.315Z,0.00
2022-08-02T01:45:31.116Z,0.00
2022-08-02T01:46:31.316Z,0.00
2022-08-02T01:47:31.121Z,0.00
2022-08-02T01:48:31.119Z,0.00
2022-08-02T01:49:31.269Z,0.00
2022-08-02T01:50:31.127Z,0.00
2022-08-02T01:51:35.461Z,0.00
2022-08-02T01:52:31.128Z,0.00
2022-08-02T01:53:31.344Z,0.00
2022-08-02T01:54:31.136Z,0.00
2022-08-02T01:55:35.167Z,0.00
2022-08-02T01:56:31.147Z,0.00
2022-08-02T01:57:31.342Z,0.00
2022-08-02T01:58:31.145Z,0.00
2022-08-02T01:59:31.147Z,0.00
2022-08-02T02:00:31.148Z,0.00
2022-08-02T02:01:31.212Z,0.00
2022-08-02T02:02:31.924Z,0.00
2022-08-02T02:03:31.152Z,0.00
2022-08-02T02:04:31.153Z,0.00
2022-08-02T02:05:31.159Z,0.00
2022-08-02T02:08:33.787Z,0.00
2022-08-02T02:09:31.165Z,0.00
2022-08-02T02:10:31.166Z,0.00
2022-08-02T02:12:31.177Z,0.00
2022-08-02T02:13:33.505Z,0.00
2022-08-02T02:14:31.377Z,0.00
2022-08-02T02:15:31.181Z,0.00
2022-08-02T02:16:31.183Z,0.00
2022-08-02T02:17:57.101Z,0.00
2022-08-02T02:18:31.186Z,0.00
2022-08-02T02:19:31.191Z,0.00
2022-08-02T02:20:31.194Z,0.00
2022-08-02T02:21:31.361Z,0.00
2022-08-02T02:22:31.205Z,0.00
2022-08-02T02:23:32.152Z,0.00
2022-08-02T02:24:31.202Z,0.00
2022-08-02T02:25:36.060Z,0.00
2022-08-02T02:26:31.868Z,0.00
2022-08-02T02:27:31.206Z,0.00
2022-08-02T02:28:31.208Z,0.00
2022-08-02T02:29:31.200Z,0.00
2022-08-02T02:30:31.214Z,0.00
2022-08-02T02:31:32.429Z,0.00
2022-08-02T02:32:31.217Z,0.00
2022-08-02T02:33:31.215Z,0.00
2022-08-02T02:34:31.220Z,0.00
2022-08-02T02:35:31.222Z,0.00
2022-08-02T02:36:31.229Z,0.00
2022-08-02T02:37:31.228Z,0.00
2022-08-02T02:38:31.429Z,0.00
2022-08-02T02:39:31.234Z,0.00
2022-08-02T02:40:31.432Z,0.00
2022-08-02T02:41:31.232Z,0.00
2022-08-02T02:42:31.246Z,0.00
2022-08-02T02:43:31.240Z,0.00
2022-08-02T02:44:31.241Z,0.00
2022-08-02T02:45:31.241Z,0.00
2022-08-02T02:46:31.252Z,0.00
2022-08-02T02:47:40.824Z,0.00
2022-08-02T02:48:31.453Z,0.00
2022-08-02T02:49:31.316Z,0.00
2022-08-02T02:50:31.260Z,0.00
2022-08-02T02:51:31.255Z,0.00
2022-08-02T02:52:31.461Z,0.00
2022-08-02T02:54:33.065Z,0.00
2022-08-02T02:54:34.967Z,0.00
2022-08-02T02:55:31.260Z,0.00
2022-08-02T02:56:31.274Z,0.00
2022-08-02T02:57:31.268Z,0.00
2022-08-02T02:58:31.271Z,0.00
2022-08-02T02:59:31.278Z,0.00
2022-08-02T03:00:31.279Z,0.00
2022-08-02T03:01:56.363Z,0.00
2022-08-02T03:02:31.281Z,0.00
2022-08-02T03:03:31.280Z,0.00
2022-08-02T03:04:55.382Z,0.00
2022-08-02T03:05:31.284Z,0.00
2022-08-02T03:06:31.289Z,0.00
2022-08-02T03:07:31.292Z,0.00
2022-08-02T03:08:31.299Z,0.00
2022-08-02T03:09:31.294Z,0.00
2022-08-02T03:10:31.299Z,0.00
2022-08-02T03:11:31.301Z,0.00
2022-08-02T03:12:32.422Z,0.00
2022-08-02T03:13:33.155Z,0.00
2022-08-02T03:14:31.307Z,0.00
2022-08-02T03:15:31.305Z,0.00
2022-08-02T03:16:31.309Z,0.00
2022-08-02T03:17:31.312Z,0.00
2022-08-02T03:18:31.329Z,0.00
2022-08-02T03:19:33.187Z,0.00
2022-08-02T03:20:31.321Z,0.00
2022-08-02T03:21:31.325Z,0.00
2022-08-02T03:22:31.324Z,0.00
2022-08-02T03:23:31.339Z,0.00
2022-08-02T03:24:31.336Z,0.00
2022-08-02T03:26:31.332Z,0.00
2022-08-02T03:27:31.333Z,0.00
2022-08-02T03:28:31.335Z,0.00
2022-08-02T03:29:34.496Z,0.00
2022-08-02T03:30:31.336Z,0.00
2022-08-02T03:31:32.836Z,0.00
2022-08-02T03:32:31.346Z,0.00
2022-08-02T03:33:31.351Z,0.00
2022-08-02T03:34:31.345Z,0.00
2022-08-02T03:35:31.352Z,0.00
2022-08-02T03:36:31.353Z,5.63
2022-08-02T03:37:31.355Z,5.63
2022-08-02T03:38:31.361Z,5.63
2022-08-02T03:40:31.363Z,5.63
2022-08-02T03:41:31.364Z,5.63
2022-08-02T03:42:31.370Z,5.63
2022-08-02T03:43:31.367Z,5.63
2022-08-02T03:45:31.373Z,11.25
2022-08-02T03:46:31.373Z,11.25
2022-08-02T03:47:31.378Z,11.25
2022-08-02T03:48:34.784Z,11.25
2022-08-02T03:50:31.381Z,11.25
2022-08-02T03:51:31.383Z,16.88
2022-08-02T03:52:31.392Z,16.88
2022-08-02T03:53:31.391Z,16.88
2022-08-02T03:54:32.884Z,16.88
2022-08-02T03:55:31.395Z,22.50
2022-08-02T03:56:31.396Z,22.50
2022-08-02T03:57:31.400Z,28.13
2022-08-02T03:58:31.399Z,28.13
2022-08-02T03:59:32.629Z,28.13
2022-08-02T04:00:31.517Z,28.13
2022-08-02T04:01:31.479Z,28.13
2022-08-02T04:03:31.615Z,28.13
2022-08-02T04:04:31.416Z,28.13
2022-08-02T04:05:31.419Z,28.13
2022-08-02T04:08:33.995Z,28.13
2022-08-02T04:08:36.952Z,28.13
2022-08-02T04:09:31.427Z,33.75
2022-08-02T04:10:31.430Z,33.75
2022-08-02T04:11:31.424Z,33.75
2022-08-02T04:12:31.430Z,33.75
2022-08-02T04:13:35.642Z,33.75
2022-08-02T04:14:31.632Z,39.38
2022-08-02T04:15:31.437Z,39.38
2022-08-02T04:16:31.443Z,39.38
2022-08-02T04:17:31.440Z,39.38
2022-08-02T04:18:31.641Z,45.00
2022-08-02T04:19:31.446Z,45.00
2022-08-02T04:21:41.360Z,45.00
2022-08-02T04:22:31.459Z,50.63
2022-08-02T04:23:31.454Z,50.63
2022-08-02T04:24:31.457Z,50.63
2022-08-02T04:25:35.471Z,56.25
2022-08-02T04:26:31.460Z,56.25
2022-08-02T04:27:50.502Z,56.25
2022-08-02T04:28:31.465Z,50.63
2022-08-02T04:29:31.468Z,50.63
2022-08-02T04:30:31.471Z,50.63
2022-08-02T04:31:31.471Z,56.25
2022-08-02T04:32:31.469Z,56.25
2022-08-02T04:33:31.480Z,67.50
2022-08-02T04:34:31.476Z,78.75
2022-08-02T04:35:31.480Z,84.38
2022-08-02T04:36:32.043Z,90.00
2022-08-02T04:37:31.485Z,95.63
2022-08-02T04:38:31.486Z,95.63
2022-08-02T04:39:31.494Z,95.63
2022-08-02T04:40:31.487Z,95.63
2022-08-02T04:41:31.493Z,95.63
2022-08-02T04:42:31.492Z,101.25
2022-08-02T04:43:31.503Z,112.50
2022-08-02T04:44:31.496Z,123.75
2022-08-02T04:45:31.498Z,118.13
2022-08-02T04:46:31.503Z,112.50
2022-08-02T04:48:02.116Z,101.25
2022-08-02T04:48:31.517Z,101.25
2022-08-02T04:49:31.605Z,101.25
2022-08-02T04:50:31.506Z,95.63
2022-08-02T04:51:38.018Z,84.38
2022-08-02T04:52:31.514Z,101.25
2022-08-02T04:53:31.522Z,118.13
2022-08-02T04:54:31.512Z,118.13
2022-08-02T04:55:31.519Z,101.25
2022-08-02T04:56:31.522Z,90.00
2022-08-02T04:57:31.524Z,78.75
2022-08-02T04:58:40.748Z,73.13
2022-08-02T04:59:31.731Z,67.50
2022-08-02T05:00:31.620Z,73.13
2022-08-02T05:01:31.550Z,90.00
2022-08-02T05:02:31.539Z,101.25
2022-08-02T05:03:31.555Z,106.88
2022-08-02T05:04:31.541Z,112.50
2022-08-02T05:05:31.546Z,123.75
2022-08-02T05:06:31.544Z,123.75
2022-08-02T05:07:31.548Z,140.63
2022-08-02T05:08:31.547Z,146.25
2022-08-02T05:09:31.551Z,140.63
2022-08-02T05:10:31.551Z,129.38
2022-08-02T05:11:34.395Z,118.13
2022-08-02T05:12:31.752Z,112.50
2022-08-02T05:13:31.564Z,101.25
2022-08-02T05:14:31.557Z,101.25
2022-08-02T05:15:33.419Z,90.00
2022-08-02T05:16:32.319Z,90.00
2022-08-02T05:17:31.572Z,101.25
2022-08-02T05:18:31.568Z,112.50
2022-08-02T05:19:31.575Z,112.50
2022-08-02T05:20:31.575Z,106.88
2022-08-02T05:21:31.681Z,112.50
2022-08-02T05:22:31.578Z,112.50
2022-08-02T05:23:31.785Z,112.50
2022-08-02T05:24:31.580Z,129.38
2022-08-02T05:25:31.793Z,140.63
2022-08-02T05:26:31.587Z,151.88
2022-08-02T05:27:31.591Z,157.50
2022-08-02T05:28:31.597Z,151.88
2022-08-02T05:29:31.594Z,140.63
2022-08-02T05:30:31.595Z,140.63
2022-08-02T05:31:31.595Z,135.00
2022-08-02T05:32:31.602Z,135.00
2022-08-02T05:33:31.606Z,140.63
2022-08-02T05:34:31.604Z,146.25
2022-08-02T05:35:31.609Z,157.50
2022-08-02T05:36:31.612Z,163.13
2022-08-02T05:37:31.963Z,157.50
2022-08-02T05:38:31.616Z,157.50
2022-08-02T05:39:31.731Z,151.88
2022-08-02T05:40:31.619Z,146.25
2022-08-02T05:41:31.620Z,135.00
2022-08-02T05:42:31.630Z,123.75
2022-08-02T05:43:31.629Z,123.75
2022-08-02T05:44:31.633Z,123.75
2022-08-02T05:45:31.637Z,123.75
2022-08-02T05:46:31.631Z,129.38
2022-08-02T05:47:31.634Z,151.88
2022-08-02T05:48:32.432Z,185.63
2022-08-02T05:49:31.720Z,225.00
2022-08-02T05:50:31.708Z,236.25
2022-08-02T05:51:32.472Z,219.38
2022-08-02T05:52:31.647Z,191.25
2022-08-02T05:53:31.652Z,196.88
2022-08-02T05:54:31.651Z,236.25
2022-08-02T05:55:31.651Z,275.63
2022-08-02T05:56:31.657Z,315.00
2022-08-02T05:57:31.660Z,343.13
2022-08-02T05:58:31.664Z,354.38
2022-08-02T05:59:31.661Z,343.13
2022-08-02T06:00:31.660Z,376.88
2022-08-02T06:01:31.745Z,433.13
2022-08-02T06:02:31.671Z,348.75
2022-08-02T06:03:31.677Z,270.00
2022-08-02T06:04:32.688Z,236.25
2022-08-02T06:05:31.676Z,230.63
2022-08-02T06:06:31.676Z,225.00
2022-08-02T06:07:31.685Z,219.38
2022-08-02T06:08:31.688Z,208.13
2022-08-02T06:09:31.691Z,191.25
2022-08-02T06:10:31.698Z,168.75
2022-08-02T06:11:31.690Z,151.88
2022-08-02T06:12:31.694Z,140.63
2022-08-02T06:13:31.700Z,157.50
2022-08-02T06:14:31.702Z,213.75
2022-08-02T06:15:31.711Z,247.50
2022-08-02T06:16:32.917Z,241.88
2022-08-02T06:17:31.708Z,258.75
2022-08-02T06:18:31.710Z,286.88
2022-08-02T06:19:31.711Z,331.88
2022-08-02T06:20:31.716Z,410.63
2022-08-02T06:22:31.811Z,472.50
2022-08-02T06:22:37.027Z,472.50
2022-08-02T06:23:31.733Z,438.75
2022-08-02T06:24:31.728Z,331.88
2022-08-02T06:25:49.902Z,286.88
2022-08-02T06:26:31.731Z,275.63
2022-08-02T06:27:31.739Z,236.25
2022-08-02T06:28:31.741Z,213.75
2022-08-02T06:29:34.446Z,191.25
2022-08-02T06:30:31.744Z,174.38
2022-08-02T06:31:31.744Z,174.38
2022-08-02T06:32:31.750Z,180.00
2022-08-02T06:33:31.752Z,146.25
2022-08-02T06:34:31.760Z,140.63
2022-08-02T06:35:31.757Z,129.38
2022-08-02T06:36:31.765Z,123.75
2022-08-02T06:37:31.763Z,135.00
2022-08-02T06:38:31.767Z,151.88
2022-08-02T06:39:31.769Z,174.38
2022-08-02T06:40:31.780Z,185.63
2022-08-02T06:41:31.774Z,191.25
2022-08-02T06:42:31.779Z,202.50
2022-08-02T06:43:31.778Z,213.75
2022-08-02T06:44:48.527Z,208.13
2022-08-02T06:45:31.786Z,213.75
2022-08-02T06:46:34.170Z,202.50
2022-08-02T06:47:31.792Z,219.38
2022-08-02T06:48:31.794Z,219.38
2022-08-02T06:49:52.633Z,219.38
2022-08-02T06:50:31.800Z,219.38
2022-08-02T06:51:31.800Z,225.00
2022-08-02T06:52:31.806Z,225.00
2022-08-02T06:53:31.829Z,230.63
2022-08-02T06:54:31.817Z,241.88
2022-08-02T06:55:31.815Z,241.88
2022-08-02T06:56:31.839Z,241.88
2022-08-02T06:57:31.835Z,236.25
2022-08-02T06:58:31.823Z,236.25
2022-08-02T06:59:31.825Z,236.25
2022-08-02T07:00:31.830Z,247.50
2022-08-02T07:01:38.631Z,253.13
2022-08-02T07:02:31.835Z,253.13
2022-08-02T07:03:31.837Z,258.75
2022-08-02T07:04:31.865Z,264.38
2022-08-02T07:05:31.844Z,258.75
2022-08-02T07:06:31.846Z,264.38
2022-08-02T07:07:31.849Z,275.63
2022-08-02T07:08:31.849Z,281.25
2022-08-02T07:09:31.856Z,281.25
2022-08-02T07:10:31.850Z,292.50
2022-08-02T07:11:31.860Z,298.13
2022-08-02T07:12:31.891Z,309.38
2022-08-02T07:13:33.175Z,315.00
2022-08-02T07:14:32.190Z,320.63
2022-08-02T07:15:31.876Z,331.88
2022-08-02T07:16:31.878Z,343.13
2022-08-02T07:17:31.883Z,360.00
2022-08-02T07:18:31.880Z,365.63
2022-08-02T07:19:37.855Z,365.63
2022-08-02T07:20:31.897Z,371.25
2022-08-02T07:21:57.162Z,365.63
2022-08-02T07:22:31.894Z,382.50
2022-08-02T07:23:31.897Z,388.13
2022-08-02T07:24:31.899Z,399.38
2022-08-02T07:26:01.743Z,393.75
2022-08-02T07:26:31.901Z,393.75
2022-08-02T07:27:31.908Z,399.38
2022-08-02T07:28:31.913Z,393.75
2022-08-02T07:29:32.718Z,376.88
2022-08-02T07:30:31.915Z,348.75
2022-08-02T07:31:31.918Z,365.63
2022-08-02T07:32:31.959Z,399.38
2022-08-02T07:33:37.516Z,382.50
2022-08-02T07:34:31.932Z,388.13
2022-08-02T07:35:31.931Z,399.38
2022-08-02T07:36:31.933Z,371.25
2022-08-02T07:37:52.970Z,320.63
2022-08-02T07:38:31.940Z,315.00
2022-08-02T07:39:31.946Z,348.75
2022-08-02T07:40:31.954Z,376.88
2022-08-02T07:41:31.950Z,360.00
2022-08-02T07:42:31.962Z,348.75
2022-08-02T07:43:31.960Z,360.00
2022-08-02T07:44:31.971Z,382.50
2022-08-02T07:45:31.975Z,382.50
2022-08-02T07:46:31.971Z,382.50
2022-08-02T07:47:31.972Z,382.50
2022-08-02T07:48:31.974Z,405.00
2022-08-02T07:49:32.035Z,410.63
2022-08-02T07:50:31.983Z,410.63
2022-08-02T07:51:31.989Z,444.38
2022-08-02T07:52:31.992Z,478.13
2022-08-02T07:53:50.241Z,506.25
2022-08-02T07:54:32.003Z,551.25
2022-08-02T07:55:39.474Z,573.75
2022-08-02T07:56:32.013Z,590.63
2022-08-02T07:57:32.023Z,624.38
2022-08-02T07:58:32.017Z,697.50
2022-08-02T07:59:32.024Z,759.38
2022-08-02T08:00:32.038Z,1001.25
2022-08-02T08:01:32.095Z,1884.38
2022-08-02T08:02:32.042Z,2700.00
2022-08-02T08:03:32.048Z,2868.75
2022-08-02T08:04:32.059Z,2970.00
2022-08-02T08:05:32.061Z,3206.25
2022-08-02T08:06:32.067Z,3273.75
2022-08-02T08:07:32.077Z,3217.50
2022-08-02T08:08:32.090Z,3037.50
2022-08-02T08:09:32.098Z,2986.88
2022-08-02T08:10:32.102Z,2913.75
2022-08-02T08:11:32.118Z,2728.13
2022-08-02T08:12:32.117Z,3335.63
2022-08-02T08:13:32.123Z,3133.13
2022-08-02T08:14:32.146Z,3037.50
2022-08-02T08:15:32.143Z,3330.00
2022-08-02T08:16:32.160Z,2441.25
2022-08-02T08:17:32.163Z,2238.75
2022-08-02T08:18:32.178Z,3318.75
2022-08-02T08:19:50.342Z,3706.88
2022-08-02T08:20:32.196Z,4123.13
2022-08-02T08:21:32.203Z,4308.75
2022-08-02T08:22:32.217Z,4258.13
2022-08-02T08:23:32.221Z,4432.50
2022-08-02T08:24:32.234Z,4061.25
2022-08-02T08:25:32.244Z,4010.63
2022-08-02T08:26:32.259Z,3200.63
2022-08-02T08:27:32.281Z,624.38
2022-08-02T08:28:32.278Z,669.38
2022-08-02T08:29:32.302Z,4196.25
2022-08-02T08:30:32.303Z,1811.25
2022-08-02T08:31:32.315Z,4674.38
2022-08-02T08:32:32.330Z,3954.38
2022-08-02T08:33:32.339Z,3903.75
2022-08-02T08:34:32.361Z,4173.75
2022-08-02T08:35:32.365Z,4066.88
2022-08-02T08:36:32.379Z,4185.00
2022-08-02T08:37:32.391Z,4280.63
2022-08-02T08:38:32.402Z,4286.25
2022-08-02T08:39:32.413Z,4398.75
2022-08-02T08:40:32.430Z,4460.63
2022-08-02T08:41:32.452Z,4545.00
2022-08-02T08:42:32.455Z,4545.00
2022-08-02T08:43:32.464Z,4539.38
2022-08-02T08:44:32.478Z,4483.13
2022-08-02T08:45:32.495Z,4455.00
2022-08-02T08:46:32.510Z,4618.13
2022-08-02T08:47:33.818Z,4573.13
2022-08-02T08:48:32.539Z,4505.63
2022-08-02T08:49:32.621Z,4443.75
2022-08-02T08:50:33.597Z,4651.88
2022-08-02T08:51:32.583Z,4860.00
2022-08-02T08:52:32.596Z,4905.00
2022-08-02T08:53:36.421Z,3110.63
2022-08-02T08:54:32.631Z,900.00
2022-08-02T08:55:32.642Z,4978.13
2022-08-02T08:56:32.668Z,855.00
2022-08-02T08:57:32.678Z,731.25
2022-08-02T08:58:32.692Z,843.75
2022-08-02T08:59:32.711Z,585.00
2022-08-02T09:00:32.730Z,1524.38
2022-08-02T09:01:50.439Z,1800.00
2022-08-02T09:02:32.901Z,742.50
2022-08-02T09:03:34.025Z,945.00
2022-08-02T09:04:32.790Z,3549.38
2022-08-02T09:05:32.801Z,4539.38
2022-08-02T09:06:32.819Z,5175.00
2022-08-02T09:07:32.847Z,2199.38
2022-08-02T09:08:32.854Z,984.38
2022-08-02T09:09:32.872Z,2739.38
2022-08-02T09:10:32.887Z,675.00
2022-08-02T09:11:32.901Z,641.25
2022-08-02T09:12:32.917Z,466.88
2022-08-02T09:13:45.043Z,466.88
2022-08-02T09:14:32.958Z,365.63
2022-08-02T09:15:32.965Z,326.25
2022-08-02T09:16:32.975Z,382.50
2022-08-02T09:17:33.000Z,450.00
2022-08-02T09:18:33.011Z,438.75
2022-08-02T09:19:33.026Z,472.50
2022-08-02T09:20:33.038Z,517.50
2022-08-02T09:21:33.051Z,585.00
2022-08-02T09:22:33.067Z,540.00
2022-08-02T09:23:33.083Z,461.25
2022-08-02T09:24:33.100Z,461.25
2022-08-02T09:25:33.115Z,517.50
2022-08-02T09:26:33.130Z,534.38
2022-08-02T09:27:33.146Z,579.38
2022-08-02T09:28:33.156Z,517.50
2022-08-02T09:29:34.520Z,405.00
2022-08-02T09:30:33.185Z,410.63
2022-08-02T09:31:33.195Z,354.38
2022-08-02T09:32:33.210Z,393.75
2022-08-02T09:33:33.248Z,433.13
2022-08-02T09:34:33.233Z,618.75
2022-08-02T09:36:05.391Z,551.25
2022-08-02T09:36:33.262Z,393.75
2022-08-02T09:37:33.272Z,393.75
2022-08-02T09:38:33.291Z,540.00
2022-08-02T09:39:33.294Z,534.38
2022-08-02T09:40:33.316Z,551.25
2022-08-02T09:41:33.327Z,573.75
2022-08-02T09:42:33.336Z,534.38
2022-08-02T09:43:33.348Z,540.00
2022-08-02T09:44:33.368Z,545.63
2022-08-02T09:45:33.376Z,545.63
2022-08-02T09:46:33.412Z,568.13
2022-08-02T09:47:33.417Z,573.75
2022-08-02T09:48:33.411Z,585.00
2022-08-02T09:49:33.531Z,579.38
2022-08-02T09:50:33.433Z,596.25
2022-08-02T09:51:33.444Z,601.88
2022-08-02T09:52:36.862Z,618.75
2022-08-02T09:53:33.471Z,635.63
2022-08-02T09:54:33.490Z,646.88
2022-08-02T09:55:33.494Z,658.13
2022-08-02T09:56:35.668Z,675.00
2022-08-02T09:57:33.522Z,714.38
2022-08-02T09:58:33.526Z,708.75
2022-08-02T09:59:33.541Z,753.75
2022-08-02T10:00:52.023Z,787.50
2022-08-02T10:01:37.642Z,776.25
2022-08-02T10:02:33.639Z,855.00
2022-08-02T10:03:35.372Z,607.50
2022-08-02T10:04:34.535Z,911.25
2022-08-02T10:05:39.362Z,1186.88
2022-08-02T10:06:33.630Z,1434.38
2022-08-02T10:07:33.643Z,1608.75
2022-08-02T10:08:33.998Z,1771.88
2022-08-02T10:09:33.666Z,1906.88
2022-08-02T10:10:33.682Z,1940.63
2022-08-02T10:11:33.744Z,1901.25
2022-08-02T10:12:33.709Z,1890.00
2022-08-02T10:13:33.723Z,1867.50
2022-08-02T10:14:33.749Z,1890.00
2022-08-02T10:15:33.754Z,1918.13
2022-08-02T10:16:33.766Z,1951.88
2022-08-02T10:17:33.781Z,1957.50
2022-08-02T10:18:39.390Z,1980.00
2022-08-02T10:20:03.474Z,2002.50
2022-08-02T10:20:33.826Z,1963.13
2022-08-02T10:21:33.838Z,2008.13
2022-08-02T10:22:33.862Z,2126.25
2022-08-02T10:23:33.875Z,2418.75
2022-08-02T10:24:33.889Z,2829.38
2022-08-02T10:25:33.920Z,3234.38
2022-08-02T10:26:33.926Z,3594.38
2022-08-02T10:27:49.341Z,3555.00
2022-08-02T10:28:33.966Z,2632.50
2022-08-02T10:29:43.943Z,1670.63
2022-08-02T10:30:34.004Z,585.00
2022-08-02T10:31:34.020Z,3048.75
2022-08-02T10:32:34.037Z,3470.63
2022-08-02T10:33:34.057Z,3189.38
2022-08-02T10:34:34.080Z,416.25
2022-08-02T10:35:34.100Z,877.50
2022-08-02T10:36:34.124Z,1985.63
2022-08-02T10:37:34.129Z,3200.63
2022-08-02T10:38:34.150Z,3110.63
2022-08-02T10:39:34.173Z,3206.25
2022-08-02T10:40:34.189Z,438.75
2022-08-02T10:41:34.211Z,382.50
2022-08-02T10:42:34.226Z,483.75
2022-08-02T10:43:34.246Z,421.88
2022-08-02T10:44:34.268Z,545.63
2022-08-02T10:45:34.298Z,770.63
2022-08-02T10:46:34.301Z,590.63
2022-08-02T10:47:34.327Z,961.88
2022-08-02T10:48:34.338Z,798.75
2022-08-02T10:49:39.856Z,5765.63
2022-08-02T10:50:34.373Z,5523.75
2022-08-02T10:51:34.688Z,5664.38
2022-08-02T10:52:34.418Z,5883.75
2022-08-02T10:53:34.430Z,5748.75
2022-08-02T10:54:34.451Z,5754.38
2022-08-02T10:55:34.475Z,5900.63
2022-08-02T10:56:34.496Z,3189.38
2022-08-02T10:57:34.507Z,4719.38
2022-08-02T10:58:34.536Z,753.75
2022-08-02T10:59:34.549Z,804.38
2022-08-02T11:00:34.639Z,5433.75
2022-08-02T11:01:38.662Z,928.13
2022-08-02T11:02:34.606Z,1091.25
2022-08-02T11:03:39.663Z,1923.75
2022-08-02T11:04:34.639Z,2542.50
2022-08-02T11:05:42.636Z,3774.38
2022-08-02T11:06:34.683Z,3825.00
2022-08-02T11:07:34.710Z,3802.50
2022-08-02T11:08:34.718Z,742.50
2022-08-02T11:09:34.752Z,5574.38
2022-08-02T11:10:34.762Z,5850.00
2022-08-02T11:11:54.302Z,5883.75
2022-08-02T11:12:34.810Z,5810.63
2022-08-02T11:13:34.829Z,5838.75
2022-08-02T11:14:34.843Z,5861.25
2022-08-02T11:15:34.865Z,5895.00
2022-08-02T11:16:34.892Z,5805.00
2022-08-02T11:17:37.994Z,5923.13
2022-08-02T11:18:34.932Z,6007.50
2022-08-02T11:19:34.953Z,6103.13
2022-08-02T11:20:34.980Z,6063.75
2022-08-02T11:21:34.993Z,6153.75
2022-08-02T11:22:35.027Z,6221.25
2022-08-02T11:23:44.546Z,6249.38
2022-08-02T11:24:35.068Z,6232.50
2022-08-02T11:26:01.403Z,6131.25
2022-08-02T11:26:35.113Z,6041.25
2022-08-02T11:27:35.137Z,5985.00
2022-08-02T11:28:35.160Z,5810.63
2022-08-02T11:29:38.603Z,5765.63
2022-08-02T11:30:35.206Z,5861.25
2022-08-02T11:31:35.231Z,5827.50
2022-08-02T11:32:35.260Z,4055.63
2022-08-02T11:33:35.278Z,5574.38
2022-08-02T11:34:37.257Z,2261.25
2022-08-02T11:35:35.332Z,4719.38
2022-08-02T11:36:35.352Z,5816.25
2022-08-02T11:37:35.376Z,5855.63
2022-08-02T11:38:35.402Z,5416.88
2022-08-02T11:39:35.431Z,5557.50
2022-08-02T11:40:35.631Z,4876.88
2022-08-02T11:41:47.245Z,5484.38
2022-08-02T11:42:35.499Z,4854.38
2022-08-02T11:43:35.527Z,5158.13
2022-08-02T11:44:35.554Z,4725.00
2022-08-02T11:45:36.115Z,4815.00
2022-08-02T11:46:35.603Z,5096.25
2022-08-02T11:47:35.631Z,4545.00
2022-08-02T11:48:35.654Z,4050.00
2022-08-02T11:49:35.711Z,4061.25
2022-08-02T11:50:35.706Z,4128.75
2022-08-02T11:51:35.736Z,4516.88
2022-08-02T11:52:35.765Z,4848.75
2022-08-02T11:53:35.785Z,5366.25
2022-08-02T11:54:35.836Z,2261.25
2022-08-02T11:55:35.837Z,4005.00
2022-08-02T11:56:35.862Z,5085.00
2022-08-02T11:58:03.019Z,5754.38
2022-08-02T11:58:35.916Z,2992.50
2022-08-02T11:59:35.946Z,5692.50
2022-08-02T12:00:35.972Z,5653.13
2022-08-02T12:01:36.844Z,5664.38
2022-08-02T12:02:36.021Z,5731.88
2022-08-02T12:03:36.177Z,5799.38
2022-08-02T12:04:36.071Z,5833.13
2022-08-02T12:06:05.645Z,5866.88
2022-08-02T12:06:36.134Z,5900.63
2022-08-02T12:07:36.530Z,6013.13
2022-08-02T12:08:36.178Z,6131.25
2022-08-02T12:09:40.902Z,6035.63
2022-08-02T12:10:36.228Z,5973.75
2022-08-02T12:11:38.967Z,6007.50
2022-08-02T12:12:36.285Z,6075.00
2022-08-02T12:13:36.307Z,6226.88
2022-08-02T12:14:36.336Z,6249.38
2022-08-02T12:15:36.363Z,6176.25
2022-08-02T12:16:36.389Z,6041.25
2022-08-02T12:17:36.418Z,5951.25
2022-08-02T12:18:36.444Z,5833.13
2022-08-02T12:19:36.470Z,5613.75
2022-08-02T12:20:36.499Z,5501.25
2022-08-02T12:21:36.523Z,5591.25
2022-08-02T12:22:40.111Z,5647.50
2022-08-02T12:23:36.575Z,5585.63
2022-08-02T12:24:36.600Z,5557.50
2022-08-02T12:25:36.635Z,5737.50
2022-08-02T12:26:36.662Z,5962.50
2022-08-02T12:27:36.687Z,5951.25
2022-08-02T12:28:36.714Z,5838.75
2022-08-02T12:29:57.980Z,5866.88
2022-08-02T12:30:36.767Z,5821.88
2022-08-02T12:31:36.791Z,5664.38
2022-08-02T12:32:36.818Z,5310.00
2022-08-02T12:33:39.458Z,5349.38
2022-08-02T12:34:36.873Z,5636.25
2022-08-02T12:35:36.899Z,5293.13
2022-08-02T12:36:36.927Z,5394.38
2022-08-02T12:37:36.959Z,5411.25
2022-08-02T12:38:36.977Z,5388.75
2022-08-02T12:39:37.008Z,3656.25
2022-08-02T12:40:37.030Z,2514.38
2022-08-02T12:41:37.056Z,1946.25
2022-08-02T12:42:37.076Z,4483.13
2022-08-02T12:43:37.104Z,731.25
2022-08-02T12:44:37.128Z,596.25
2022-08-02T12:45:39.190Z,540.00
2022-08-02T12:46:42.109Z,523.13
2022-08-02T12:47:37.210Z,511.88
2022-08-02T12:48:38.352Z,517.50
2022-08-02T12:49:37.275Z,495.00
2022-08-02T12:50:37.300Z,495.00
2022-08-02T12:51:51.412Z,472.50
2022-08-02T12:52:37.319Z,433.13
2022-08-02T12:53:37.340Z,438.75